sensor_id;sensor_type;location;lat;lon;timestamp;temperature;humidity
75489;HTU21D;64069;46.396;48.102;2023-01-26T00:01:17;-10.89;67.46
75489;HTU21D;64069;46.396;48.102;2023-01-26T00:03:44;-10.88;67.35
75489;HTU21D;64069;46.396;48.102;2023-01-26T00:06:11;-10.88;67.55
75489;HTU21D;64069;46.396;48.102;2023-01-26T00:08:39;-10.90;67.72
75489;HTU21D;64069;46.396;48.102;2023-01-26T00:11:06;-10.94;67.74
75489;HTU21D;64069;46.396;48.102;2023-01-26T00:13:33;-10.97;67.91
75489;HTU21D;64069;46.396;48.102;2023-01-26T00:16:00;-11.00;67.86
75489;HTU21D;64069;46.396;48.102;2023-01-26T00:18:26;-11.01;67.79
75489;HTU21D;64069;46.396;48.102;2023-01-26T00:20:56;-11.02;68.02
75489;HTU21D;64069;46.396;48.102;2023-01-26T00:23:23;-10.99;68.00
75489;HTU21D;64069;46.396;48.102;2023-01-26T00:25:49;-11.01;68.31
75489;HTU21D;64069;46.396;48.102;2023-01-26T00:28:15;-11.01;68.15
75489;HTU21D;64069;46.396;48.102;2023-01-26T00:30:41;-10.99;68.11
75489;HTU21D;64069;46.396;48.102;2023-01-26T00:33:07;-10.95;68.07
75489;HTU21D;64069;46.396;48.102;2023-01-26T00:35:33;-10.95;67.98
75489;HTU21D;64069;46.396;48.102;2023-01-26T00:38:01;-10.94;67.95
75489;HTU21D;64069;46.396;48.102;2023-01-26T00:40:27;-10.94;67.92
75489;HTU21D;64069;46.396;48.102;2023-01-26T00:42:52;-10.93;67.91
75489;HTU21D;64069;46.396;48.102;2023-01-26T00:45:20;-10.93;67.94
75489;HTU21D;64069;46.396;48.102;2023-01-26T00:47:46;-10.94;67.92
75489;HTU21D;64069;46.396;48.102;2023-01-26T00:50:12;-10.94;67.99
75489;HTU21D;64069;46.396;48.102;2023-01-26T00:52:38;-10.94;67.98
75489;HTU21D;64069;46.396;48.102;2023-01-26T00:55:04;-10.97;67.95
75489;HTU21D;64069;46.396;48.102;2023-01-26T00:57:30;-11.01;68.01
75489;HTU21D;64069;46.396;48.102;2023-01-26T00:59:56;-11.03;68.16
75489;HTU21D;64069;46.396;48.102;2023-01-26T01:02:23;-11.08;68.10
75489;HTU21D;64069;46.396;48.102;2023-01-26T01:04:49;-11.10;68.17
75489;HTU21D;64069;46.396;48.102;2023-01-26T01:07:15;-11.14;68.21
75489;HTU21D;64069;46.396;48.102;2023-01-26T01:09:41;-11.20;68.17
75489;HTU21D;64069;46.396;48.102;2023-01-26T01:12:07;-11.24;68.18
75489;HTU21D;64069;46.396;48.102;2023-01-26T01:14:33;-11.31;68.25
75489;HTU21D;64069;46.396;48.102;2023-01-26T01:16:59;-11.36;68.55
75489;HTU21D;64069;46.396;48.102;2023-01-26T01:19:25;-11.44;68.77
75489;HTU21D;64069;46.396;48.102;2023-01-26T01:21:51;-11.52;69.15
75489;HTU21D;64069;46.396;48.102;2023-01-26T01:24:17;-11.61;69.22
75489;HTU21D;64069;46.396;48.102;2023-01-26T01:26:43;-11.65;69.63
75489;HTU21D;64069;46.396;48.102;2023-01-26T01:29:12;-11.68;69.65
75489;HTU21D;64069;46.396;48.102;2023-01-26T01:31:38;-11.69;69.65
75489;HTU21D;64069;46.396;48.102;2023-01-26T01:34:05;-11.69;69.48
75489;HTU21D;64069;46.396;48.102;2023-01-26T01:36:31;-11.69;69.53
75489;HTU21D;64069;46.396;48.102;2023-01-26T01:38:58;-11.69;69.52
75489;HTU21D;64069;46.396;48.102;2023-01-26T01:41:23;-11.70;69.48
75489;HTU21D;64069;46.396;48.102;2023-01-26T01:43:51;-11.73;69.56
75489;HTU21D;64069;46.396;48.102;2023-01-26T01:46:26;-11.76;69.69
75489;HTU21D;64069;46.396;48.102;2023-01-26T01:51:41;-11.82;69.68
75489;HTU21D;64069;46.396;48.102;2023-01-26T01:54:12;-11.89;69.72
75489;HTU21D;64069;46.396;48.102;2023-01-26T01:56:47;-12.00;69.99
75489;HTU21D;64069;46.396;48.102;2023-01-26T01:59:16;-12.11;70.12
75489;HTU21D;64069;46.396;48.102;2023-01-26T02:01:46;-12.17;70.45
75489;HTU21D;64069;46.396;48.102;2023-01-26T02:04:12;-12.23;70.36
75489;HTU21D;64069;46.396;48.102;2023-01-26T02:06:48;-12.25;70.63
75489;HTU21D;64069;46.396;48.102;2023-01-26T02:09:15;-12.26;70.67
75489;HTU21D;64069;46.396;48.102;2023-01-26T02:12:01;-12.23;70.54
75489;HTU21D;64069;46.396;48.102;2023-01-26T02:14:28;-12.20;70.48
75489;HTU21D;64069;46.396;48.102;2023-01-26T02:16:54;-12.19;70.34
75489;HTU21D;64069;46.396;48.102;2023-01-26T02:19:47;-12.17;70.42
75489;HTU21D;64069;46.396;48.102;2023-01-26T02:25:33;-12.15;70.25
75489;HTU21D;64069;46.396;48.102;2023-01-26T02:28:02;-12.15;70.12
75489;HTU21D;64069;46.396;48.102;2023-01-26T02:30:28;-12.18;70.23
75489;HTU21D;64069;46.396;48.102;2023-01-26T02:32:54;-12.17;70.32
75489;HTU21D;64069;46.396;48.102;2023-01-26T02:35:21;-12.17;70.26
75489;HTU21D;64069;46.396;48.102;2023-01-26T02:37:47;-12.15;70.34
75489;HTU21D;64069;46.396;48.102;2023-01-26T02:40:55;-12.14;70.36
75489;HTU21D;64069;46.396;48.102;2023-01-26T02:43:25;-12.15;70.35
75489;HTU21D;64069;46.396;48.102;2023-01-26T02:45:52;-12.13;70.36
75489;HTU21D;64069;46.396;48.102;2023-01-26T02:48:20;-12.12;70.35
75489;HTU21D;64069;46.396;48.102;2023-01-26T02:51:05;-12.09;70.35
75489;HTU21D;64069;46.396;48.102;2023-01-26T02:53:32;-12.07;70.42
75489;HTU21D;64069;46.396;48.102;2023-01-26T02:55:58;-12.04;70.39
75489;HTU21D;64069;46.396;48.102;2023-01-26T02:58:24;-12.01;70.35
75489;HTU21D;64069;46.396;48.102;2023-01-26T03:00:51;-12.03;70.32
75489;HTU21D;64069;46.396;48.102;2023-01-26T03:03:23;-12.04;70.35
75489;HTU21D;64069;46.396;48.102;2023-01-26T03:05:50;-12.05;70.40
75489;HTU21D;64069;46.396;48.102;2023-01-26T03:08:17;-12.08;70.35
75489;HTU21D;64069;46.396;48.102;2023-01-26T03:10:43;-12.12;70.35
75489;HTU21D;64069;46.396;48.102;2023-01-26T03:13:12;-12.13;70.48
75489;HTU21D;64069;46.396;48.102;2023-01-26T03:15:37;-12.18;70.59
75489;HTU21D;64069;46.396;48.102;2023-01-26T03:18:15;-12.21;70.78
75489;HTU21D;64069;46.396;48.102;2023-01-26T03:21:01;-12.23;70.75
75489;HTU21D;64069;46.396;48.102;2023-01-26T03:23:46;-12.24;70.67
75489;HTU21D;64069;46.396;48.102;2023-01-26T03:26:32;-12.20;71.22
75489;HTU21D;64069;46.396;48.102;2023-01-26T03:29:20;-12.21;71.26
75489;HTU21D;64069;46.396;48.102;2023-01-26T03:31:46;-12.20;71.16
75489;HTU21D;64069;46.396;48.102;2023-01-26T03:34:12;-12.15;71.37
75489;HTU21D;64069;46.396;48.102;2023-01-26T03:36:39;-12.10;71.54
75489;HTU21D;64069;46.396;48.102;2023-01-26T03:39:10;-12.05;71.70
75489;HTU21D;64069;46.396;48.102;2023-01-26T03:41:56;-12.04;71.43
75489;HTU21D;64069;46.396;48.102;2023-01-26T03:44:40;-11.99;71.38
75489;HTU21D;64069;46.396;48.102;2023-01-26T03:47:25;-11.94;71.35
75489;HTU21D;64069;46.396;48.102;2023-01-26T03:50:09;-11.85;71.29
75489;HTU21D;64069;46.396;48.102;2023-01-26T03:52:55;-11.77;71.32
75489;HTU21D;64069;46.396;48.102;2023-01-26T03:55:39;-11.68;71.48
75489;HTU21D;64069;46.396;48.102;2023-01-26T03:58:24;-11.64;71.51
75489;HTU21D;64069;46.396;48.102;2023-01-26T04:00:50;-11.59;71.45
75489;HTU21D;64069;46.396;48.102;2023-01-26T04:03:16;-11.53;71.66
75489;HTU21D;64069;46.396;48.102;2023-01-26T04:06:00;-11.50;71.71
75489;HTU21D;64069;46.396;48.102;2023-01-26T04:08:47;-11.49;71.61
75489;HTU21D;64069;46.396;48.102;2023-01-26T04:11:14;-11.45;71.77
75489;HTU21D;64069;46.396;48.102;2023-01-26T04:13:40;-11.39;71.91
75489;HTU21D;64069;46.396;48.102;2023-01-26T04:16:31;-11.38;71.96
75489;HTU21D;64069;46.396;48.102;2023-01-26T04:19:16;-11.34;71.96
75489;HTU21D;64069;46.396;48.102;2023-01-26T04:22:02;-11.36;71.98
75489;HTU21D;64069;46.396;48.102;2023-01-26T04:24:29;-11.35;72.19
75489;HTU21D;64069;46.396;48.102;2023-01-26T04:26:56;-11.33;72.23
75489;HTU21D;64069;46.396;48.102;2023-01-26T04:29:27;-11.29;72.08
75489;HTU21D;64069;46.396;48.102;2023-01-26T04:31:53;-11.25;72.12
75489;HTU21D;64069;46.396;48.102;2023-01-26T04:34:20;-11.21;72.25
75489;HTU21D;64069;46.396;48.102;2023-01-26T04:36:47;-11.18;72.28
75489;HTU21D;64069;46.396;48.102;2023-01-26T04:39:14;-11.10;72.21
75489;HTU21D;64069;46.396;48.102;2023-01-26T04:41:44;-11.06;72.20
75489;HTU21D;64069;46.396;48.102;2023-01-26T04:44:13;-11.02;72.19
75489;HTU21D;64069;46.396;48.102;2023-01-26T04:46:39;-10.93;72.14
75489;HTU21D;64069;46.396;48.102;2023-01-26T04:49:05;-10.85;72.05
75489;HTU21D;64069;46.396;48.102;2023-01-26T04:51:32;-10.75;71.90
75489;HTU21D;64069;46.396;48.102;2023-01-26T04:53:59;-10.70;71.87
75489;HTU21D;64069;46.396;48.102;2023-01-26T04:56:31;-10.60;71.87
75489;HTU21D;64069;46.396;48.102;2023-01-26T04:59:01;-10.51;71.83
75489;HTU21D;64069;46.396;48.102;2023-01-26T05:01:28;-10.44;71.80
75489;HTU21D;64069;46.396;48.102;2023-01-26T05:03:55;-10.35;71.78
75489;HTU21D;64069;46.396;48.102;2023-01-26T05:06:23;-10.23;71.74
75489;HTU21D;64069;46.396;48.102;2023-01-26T05:08:50;-10.15;71.67
75489;HTU21D;64069;46.396;48.102;2023-01-26T05:11:16;-10.03;71.66
75489;HTU21D;64069;46.396;48.102;2023-01-26T05:14:05;-9.89;71.58
75489;HTU21D;64069;46.396;48.102;2023-01-26T05:16:42;-9.73;71.63
75489;HTU21D;64069;46.396;48.102;2023-01-26T05:19:21;-9.56;71.60
75489;HTU21D;64069;46.396;48.102;2023-01-26T05:22:10;-9.29;71.60
75489;HTU21D;64069;46.396;48.102;2023-01-26T05:24:38;-8.99;71.55
75489;HTU21D;64069;46.396;48.102;2023-01-26T05:27:16;-8.64;71.28
75489;HTU21D;64069;46.396;48.102;2023-01-26T05:29:50;-8.41;71.06
75489;HTU21D;64069;46.396;48.102;2023-01-26T05:32:17;-8.18;71.06
75489;HTU21D;64069;46.396;48.102;2023-01-26T05:34:44;-7.92;71.00
75489;HTU21D;64069;46.396;48.102;2023-01-26T05:37:10;-7.64;70.99
75489;HTU21D;64069;46.396;48.102;2023-01-26T05:39:40;-7.30;70.95
75489;HTU21D;64069;46.396;48.102;2023-01-26T05:42:06;-7.01;70.82
75489;HTU21D;64069;46.396;48.102;2023-01-26T05:44:58;-6.89;70.74
75489;HTU21D;64069;46.396;48.102;2023-01-26T05:47:24;-6.88;70.71
75489;HTU21D;64069;46.396;48.102;2023-01-26T05:49:50;-6.83;70.93
75489;HTU21D;64069;46.396;48.102;2023-01-26T05:52:22;-6.78;71.10
75489;HTU21D;64069;46.396;48.102;2023-01-26T05:54:53;-6.71;71.23
75489;HTU21D;64069;46.396;48.102;2023-01-26T05:57:20;-6.63;71.28
75489;HTU21D;64069;46.396;48.102;2023-01-26T05:59:50;-6.49;71.26
75489;HTU21D;64069;46.396;48.102;2023-01-26T06:02:16;-6.41;71.27
75489;HTU21D;64069;46.396;48.102;2023-01-26T06:04:43;-6.32;71.21
75489;HTU21D;64069;46.396;48.102;2023-01-26T06:07:10;-6.27;71.20
75489;HTU21D;64069;46.396;48.102;2023-01-26T06:10:03;-6.09;71.23
75489;HTU21D;64069;46.396;48.102;2023-01-26T06:12:55;-5.90;71.06
75489;HTU21D;64069;46.396;48.102;2023-01-26T06:15:52;-5.83;70.88
75489;HTU21D;64069;46.396;48.102;2023-01-26T06:18:23;-5.78;70.87
75489;HTU21D;64069;46.396;48.102;2023-01-26T06:20:52;-5.62;70.97
75489;HTU21D;64069;46.396;48.102;2023-01-26T06:23:18;-5.41;70.83
75489;HTU21D;64069;46.396;48.102;2023-01-26T06:25:45;-5.24;70.68
75489;HTU21D;64069;46.396;48.102;2023-01-26T06:28:12;-5.04;70.66
75489;HTU21D;64069;46.396;48.102;2023-01-26T06:30:38;-4.90;70.41
75489;HTU21D;64069;46.396;48.102;2023-01-26T06:33:08;-4.82;70.43
75489;HTU21D;64069;46.396;48.102;2023-01-26T06:35:36;-4.65;70.39
75489;HTU21D;64069;46.396;48.102;2023-01-26T06:38:08;-4.42;70.28
75489;HTU21D;64069;46.396;48.102;2023-01-26T06:40:34;-4.21;70.16
75489;HTU21D;64069;46.396;48.102;2023-01-26T06:43:00;-4.06;69.95
75489;HTU21D;64069;46.396;48.102;2023-01-26T06:45:26;-4.04;69.71
75489;HTU21D;64069;46.396;48.102;2023-01-26T06:47:53;-4.16;69.80
75489;HTU21D;64069;46.396;48.102;2023-01-26T06:50:22;-4.08;70.00
75489;HTU21D;64069;46.396;48.102;2023-01-26T06:52:53;-3.89;69.96
75489;HTU21D;64069;46.396;48.102;2023-01-26T06:55:38;-3.74;69.70
75489;HTU21D;64069;46.396;48.102;2023-01-26T06:58:44;-3.70;69.46
75489;HTU21D;64069;46.396;48.102;2023-01-26T07:01:36;-3.51;69.42
75489;HTU21D;64069;46.396;48.102;2023-01-26T07:04:03;-3.48;69.21
75489;HTU21D;64069;46.396;48.102;2023-01-26T07:06:29;-3.39;69.31
75489;HTU21D;64069;46.396;48.102;2023-01-26T07:08:54;-3.24;69.26
75489;HTU21D;64069;46.396;48.102;2023-01-26T07:11:20;-3.06;69.14
75489;HTU21D;64069;46.396;48.102;2023-01-26T07:13:47;-2.89;68.91
75489;HTU21D;64069;46.396;48.102;2023-01-26T07:16:15;-2.75;68.83
75489;HTU21D;64069;46.396;48.102;2023-01-26T07:18:41;-2.65;68.56
75489;HTU21D;64069;46.396;48.102;2023-01-26T07:21:12;-2.54;68.43
75489;HTU21D;64069;46.396;48.102;2023-01-26T07:23:38;-2.37;68.36
75489;HTU21D;64069;46.396;48.102;2023-01-26T07:26:05;-2.19;68.16
75489;HTU21D;64069;46.396;48.102;2023-01-26T07:28:32;-2.13;67.81
75489;HTU21D;64069;46.396;48.102;2023-01-26T07:30:59;-2.10;67.72
75489;HTU21D;64069;46.396;48.102;2023-01-26T07:33:27;-1.94;67.62
75489;HTU21D;64069;46.396;48.102;2023-01-26T07:35:56;-1.87;67.39
75489;HTU21D;64069;46.396;48.102;2023-01-26T07:38:22;-1.78;67.30
75489;HTU21D;64069;46.396;48.102;2023-01-26T07:40:49;-1.67;66.80
75489;HTU21D;64069;46.396;48.102;2023-01-26T07:43:15;-1.59;66.56
75489;HTU21D;64069;46.396;48.102;2023-01-26T07:45:51;-1.56;66.24
75489;HTU21D;64069;46.396;48.102;2023-01-26T07:48:20;-1.56;66.08
75489;HTU21D;64069;46.396;48.102;2023-01-26T07:50:46;-1.53;65.94
75489;HTU21D;64069;46.396;48.102;2023-01-26T07:53:13;-1.49;65.79
75489;HTU21D;64069;46.396;48.102;2023-01-26T07:55:42;-1.43;65.33
75489;HTU21D;64069;46.396;48.102;2023-01-26T07:58:09;-1.41;65.14
75489;HTU21D;64069;46.396;48.102;2023-01-26T08:00:36;-1.36;64.98
75489;HTU21D;64069;46.396;48.102;2023-01-26T08:03:02;-1.30;64.73
75489;HTU21D;64069;46.396;48.102;2023-01-26T08:05:28;-1.17;64.50
75489;HTU21D;64069;46.396;48.102;2023-01-26T08:08:00;0.00;64.25
75489;HTU21D;64069;46.396;48.102;2023-01-26T08:10:27;-1.03;64.20
75489;HTU21D;64069;46.396;48.102;2023-01-26T08:13:00;-0.96;63.85
75489;HTU21D;64069;46.396;48.102;2023-01-26T08:15:27;-0.85;63.53
75489;HTU21D;64069;46.396;48.102;2023-01-26T08:17:54;-0.80;63.39
75489;HTU21D;64069;46.396;48.102;2023-01-26T08:20:20;-0.76;63.03
75489;HTU21D;64069;46.396;48.102;2023-01-26T08:22:46;-0.76;62.95
75489;HTU21D;64069;46.396;48.102;2023-01-26T08:25:12;-0.75;62.47
75489;HTU21D;64069;46.396;48.102;2023-01-26T08:27:38;-0.73;62.34
75489;HTU21D;64069;46.396;48.102;2023-01-26T08:30:05;-0.74;62.02
75489;HTU21D;64069;46.396;48.102;2023-01-26T08:32:31;-0.70;61.95
75489;HTU21D;64069;46.396;48.102;2023-01-26T08:35:01;-0.72;61.63
75489;HTU21D;64069;46.396;48.102;2023-01-26T08:37:27;-0.67;61.65
75489;HTU21D;64069;46.396;48.102;2023-01-26T08:39:53;-0.60;61.63
75489;HTU21D;64069;46.396;48.102;2023-01-26T08:42:19;-0.52;61.21
75489;HTU21D;64069;46.396;48.102;2023-01-26T08:44:45;-0.47;61.13
75489;HTU21D;64069;46.396;48.102;2023-01-26T08:47:11;-0.43;60.42
75489;HTU21D;64069;46.396;48.102;2023-01-26T08:49:37;-0.36;60.52
75489;HTU21D;64069;46.396;48.102;2023-01-26T08:52:03;-0.27;60.28
75489;HTU21D;64069;46.396;48.102;2023-01-26T08:54:29;-0.21;59.90
75489;HTU21D;64069;46.396;48.102;2023-01-26T08:56:59;-0.22;59.83
75489;HTU21D;64069;46.396;48.102;2023-01-26T08:59:25;-0.20;59.64
75489;HTU21D;64069;46.396;48.102;2023-01-26T09:01:51;-0.22;59.45
75489;HTU21D;64069;46.396;48.102;2023-01-26T09:04:22;-0.19;59.11
75489;HTU21D;64069;46.396;48.102;2023-01-26T09:06:47;-0.14;59.00
75489;HTU21D;64069;46.396;48.102;2023-01-26T09:09:13;-0.07;59.07
75489;HTU21D;64069;46.396;48.102;2023-01-26T09:11:39;-0.05;58.76
75489;HTU21D;64069;46.396;48.102;2023-01-26T09:14:06;-0.00;58.67
75489;HTU21D;64069;46.396;48.102;2023-01-26T09:16:32;0.09;58.60
75489;HTU21D;64069;46.396;48.102;2023-01-26T09:18:57;0.17;58.37
75489;HTU21D;64069;46.396;48.102;2023-01-26T09:21:23;0.20;58.35
75489;HTU21D;64069;46.396;48.102;2023-01-26T09:23:49;0.22;58.02
75489;HTU21D;64069;46.396;48.102;2023-01-26T09:26:15;0.27;57.97
75489;HTU21D;64069;46.396;48.102;2023-01-26T09:28:42;0.31;57.67
75489;HTU21D;64069;46.396;48.102;2023-01-26T09:31:09;0.30;57.55
75489;HTU21D;64069;46.396;48.102;2023-01-26T09:33:36;0.33;57.64
75489;HTU21D;64069;46.396;48.102;2023-01-26T09:36:04;0.38;57.72
75489;HTU21D;64069;46.396;48.102;2023-01-26T09:38:30;0.39;57.26
75489;HTU21D;64069;46.396;48.102;2023-01-26T09:41:10;0.38;56.97
75489;HTU21D;64069;46.396;48.102;2023-01-26T09:43:46;0.40;56.90
75489;HTU21D;64069;46.396;48.102;2023-01-26T09:49:04;0.47;56.33
75489;HTU21D;64069;46.396;48.102;2023-01-26T09:51:45;0.46;56.10
75489;HTU21D;64069;46.396;48.102;2023-01-26T09:54:37;0.50;56.02
75489;HTU21D;64069;46.396;48.102;2023-01-26T09:57:16;0.53;56.07
75489;HTU21D;64069;46.396;48.102;2023-01-26T09:59:50;0.55;56.03
75489;HTU21D;64069;46.396;48.102;2023-01-26T10:08:12;0.77;55.55
75489;HTU21D;64069;46.396;48.102;2023-01-26T10:10:43;0.75;55.23
75489;HTU21D;64069;46.396;48.102;2023-01-26T10:13:13;0.72;55.22
75489;HTU21D;64069;46.396;48.102;2023-01-26T10:15:47;0.76;55.33
75489;HTU21D;64069;46.396;48.102;2023-01-26T10:18:23;0.84;55.31
75489;HTU21D;64069;46.396;48.102;2023-01-26T10:20:53;0.96;55.21
75489;HTU21D;64069;46.396;48.102;2023-01-26T10:23:30;1.05;55.00
75489;HTU21D;64069;46.396;48.102;2023-01-26T10:26:13;1.09;54.83
75489;HTU21D;64069;46.396;48.102;2023-01-26T10:28:42;1.10;54.81
75489;HTU21D;64069;46.396;48.102;2023-01-26T10:31:19;1.11;54.13
75489;HTU21D;64069;46.396;48.102;2023-01-26T10:34:00;1.11;54.00
75489;HTU21D;64069;46.396;48.102;2023-01-26T10:36:31;1.11;53.59
75489;HTU21D;64069;46.396;48.102;2023-01-26T10:39:05;1.11;53.39
75489;HTU21D;64069;46.396;48.102;2023-01-26T10:41:32;1.11;53.67
75489;HTU21D;64069;46.396;48.102;2023-01-26T10:44:19;1.12;53.57
75489;HTU21D;64069;46.396;48.102;2023-01-26T10:49:39;1.25;53.26
75489;HTU21D;64069;46.396;48.102;2023-01-26T10:52:19;1.23;53.03
75489;HTU21D;64069;46.396;48.102;2023-01-26T10:55:15;1.22;53.01
75489;HTU21D;64069;46.396;48.102;2023-01-26T10:57:44;1.23;53.19
75489;HTU21D;64069;46.396;48.102;2023-01-26T11:00:31;1.25;52.98
75489;HTU21D;64069;46.396;48.102;2023-01-26T11:05:37;1.24;52.86
75489;HTU21D;64069;46.396;48.102;2023-01-26T11:08:03;1.26;52.57
75489;HTU21D;64069;46.396;48.102;2023-01-26T11:10:38;1.24;52.33
75489;HTU21D;64069;46.396;48.102;2023-01-26T11:13:21;1.25;52.07
75489;HTU21D;64069;46.396;48.102;2023-01-26T11:15:50;1.28;52.11
75489;HTU21D;64069;46.396;48.102;2023-01-26T11:18:32;1.27;52.02
75489;HTU21D;64069;46.396;48.102;2023-01-26T11:21:15;1.32;51.98
75489;HTU21D;64069;46.396;48.102;2023-01-26T11:32:33;1.34;52.20
75489;HTU21D;64069;46.396;48.102;2023-01-26T11:40:51;1.33;51.83
75489;HTU21D;64069;46.396;48.102;2023-01-26T11:49:30;1.33;51.28
75489;HTU21D;64069;46.396;48.102;2023-01-26T11:52:11;1.28;51.14
75489;HTU21D;64069;46.396;48.102;2023-01-26T12:00:46;1.18;50.14
75489;HTU21D;64069;46.396;48.102;2023-01-26T12:03:44;1.13;50.53
75489;HTU21D;64069;46.396;48.102;2023-01-26T12:06:41;1.14;50.13
75489;HTU21D;64069;46.396;48.102;2023-01-26T12:09:42;1.13;50.41
75489;HTU21D;64069;46.396;48.102;2023-01-26T12:12:15;1.14;50.05
75489;HTU21D;64069;46.396;48.102;2023-01-26T12:14:55;1.07;50.55
75489;HTU21D;64069;46.396;48.102;2023-01-26T12:25:45;0.94;50.34
75489;HTU21D;64069;46.396;48.102;2023-01-26T12:31:21;0.89;50.21
75489;HTU21D;64069;46.396;48.102;2023-01-26T12:33:52;0.87;50.29
75489;HTU21D;64069;46.396;48.102;2023-01-26T12:45:00;0.66;50.30
75489;HTU21D;64069;46.396;48.102;2023-01-26T12:47:54;0.62;50.27
75489;HTU21D;64069;46.396;48.102;2023-01-26T12:53:29;0.51;50.66
75489;HTU21D;64069;46.396;48.102;2023-01-26T12:56:10;0.45;50.73
75489;HTU21D;64069;46.396;48.102;2023-01-26T12:58:43;0.38;50.90
75489;HTU21D;64069;46.396;48.102;2023-01-26T13:01:15;0.35;50.71
75489;HTU21D;64069;46.396;48.102;2023-01-26T13:03:52;0.27;50.95
75489;HTU21D;64069;46.396;48.102;2023-01-26T13:06:21;0.17;51.21
75489;HTU21D;64069;46.396;48.102;2023-01-26T13:11:54;0.03;51.17
75489;HTU21D;64069;46.396;48.102;2023-01-26T13:14:33;-0.02;51.31
75489;HTU21D;64069;46.396;48.102;2023-01-26T13:24:58;-0.42;51.76
75489;HTU21D;64069;46.396;48.102;2023-01-26T13:33:15;-0.74;51.96
75489;HTU21D;64069;46.396;48.102;2023-01-26T13:35:44;-0.85;52.03
75489;HTU21D;64069;46.396;48.102;2023-01-26T13:38:32;-0.99;52.17
75489;HTU21D;64069;46.396;48.102;2023-01-26T13:41:00;-1.14;52.40
75489;HTU21D;64069;46.396;48.102;2023-01-26T13:43:40;-1.26;52.58
75489;HTU21D;64069;46.396;48.102;2023-01-26T13:46:15;-1.39;52.69
75489;HTU21D;64069;46.396;48.102;2023-01-26T13:48:49;-1.53;52.79
75489;HTU21D;64069;46.396;48.102;2023-01-26T13:51:23;-1.67;52.91
75489;HTU21D;64069;46.396;48.102;2023-01-26T13:54:02;-1.82;53.07
75489;HTU21D;64069;46.396;48.102;2023-01-26T13:56:34;-1.95;53.23
75489;HTU21D;64069;46.396;48.102;2023-01-26T13:59:10;-2.07;53.34
75489;HTU21D;64069;46.396;48.102;2023-01-26T14:01:48;-2.21;53.46
75489;HTU21D;64069;46.396;48.102;2023-01-26T14:04:17;-2.33;53.55
75489;HTU21D;64069;46.396;48.102;2023-01-26T14:09:29;-2.57;53.81
75489;HTU21D;64069;46.396;48.102;2023-01-26T14:11:59;-2.66;53.96
75489;HTU21D;64069;46.396;48.102;2023-01-26T14:14:28;-2.72;54.04
75489;HTU21D;64069;46.396;48.102;2023-01-26T14:16:56;-2.72;54.07
75489;HTU21D;64069;46.396;48.102;2023-01-26T14:19:23;-2.73;54.01
75489;HTU21D;64069;46.396;48.102;2023-01-26T14:21:56;-2.77;54.05
75489;HTU21D;64069;46.396;48.102;2023-01-26T14:26:56;-2.82;54.06
75489;HTU21D;64069;46.396;48.102;2023-01-26T14:29:25;-2.89;54.15
75489;HTU21D;64069;46.396;48.102;2023-01-26T14:31:53;-2.91;54.23
75489;HTU21D;64069;46.396;48.102;2023-01-26T14:34:25;-2.96;54.23
75489;HTU21D;64069;46.396;48.102;2023-01-26T14:37:16;-3.06;54.32
75489;HTU21D;64069;46.396;48.102;2023-01-26T14:39:46;-3.16;54.39
75489;HTU21D;64069;46.396;48.102;2023-01-26T14:42:18;-3.24;54.52
75489;HTU21D;64069;46.396;48.102;2023-01-26T14:44:44;-3.35;54.64
75489;HTU21D;64069;46.396;48.102;2023-01-26T14:47:18;-3.46;54.75
75489;HTU21D;64069;46.396;48.102;2023-01-26T14:52:25;-3.66;55.00
75489;HTU21D;64069;46.396;48.102;2023-01-26T14:54:54;-3.72;55.09
75489;HTU21D;64069;46.396;48.102;2023-01-26T14:57:24;-3.80;55.20
75489;HTU21D;64069;46.396;48.102;2023-01-26T14:59:55;-3.86;55.29
75489;HTU21D;64069;46.396;48.102;2023-01-26T15:02:24;-3.92;55.45
75489;HTU21D;64069;46.396;48.102;2023-01-26T15:05:00;-4.01;55.54
75489;HTU21D;64069;46.396;48.102;2023-01-26T15:09:59;-4.14;55.77
75489;HTU21D;64069;46.396;48.102;2023-01-26T15:12:25;-4.23;55.84
75489;HTU21D;64069;46.396;48.102;2023-01-26T15:14:58;-4.31;56.04
75489;HTU21D;64069;46.396;48.102;2023-01-26T15:19:56;-4.43;56.26
75489;HTU21D;64069;46.396;48.102;2023-01-26T15:22:24;-4.53;56.37
75489;HTU21D;64069;46.396;48.102;2023-01-26T15:25:02;-4.59;56.61
75489;HTU21D;64069;46.396;48.102;2023-01-26T15:27:37;-4.66;56.81
75489;HTU21D;64069;46.396;48.102;2023-01-26T15:30:04;-4.72;56.88
75489;HTU21D;64069;46.396;48.102;2023-01-26T15:32:37;-4.79;56.98
75489;HTU21D;64069;46.396;48.102;2023-01-26T15:37:41;-4.89;57.34
75489;HTU21D;64069;46.396;48.102;2023-01-26T15:40:08;-4.97;57.39
75489;HTU21D;64069;46.396;48.102;2023-01-26T15:42:34;-5.03;57.64
75489;HTU21D;64069;46.396;48.102;2023-01-26T15:45:00;-5.11;57.84
75489;HTU21D;64069;46.396;48.102;2023-01-26T15:47:26;-5.17;58.13
75489;HTU21D;64069;46.396;48.102;2023-01-26T15:49:52;-5.22;58.13
75489;HTU21D;64069;46.396;48.102;2023-01-26T15:52:23;-5.26;58.29
75489;HTU21D;64069;46.396;48.102;2023-01-26T15:54:50;-5.32;58.45
75489;HTU21D;64069;46.396;48.102;2023-01-26T15:57:17;-5.42;58.48
75489;HTU21D;64069;46.396;48.102;2023-01-26T15:59:43;-5.50;58.58
75489;HTU21D;64069;46.396;48.102;2023-01-26T16:02:18;-5.59;58.74
75489;HTU21D;64069;46.396;48.102;2023-01-26T16:04:48;-5.68;59.09
75489;HTU21D;64069;46.396;48.102;2023-01-26T16:07:16;-5.73;59.07
75489;HTU21D;64069;46.396;48.102;2023-01-26T16:09:49;-5.83;59.03
75489;HTU21D;64069;46.396;48.102;2023-01-26T16:12:17;-5.89;59.09
75489;HTU21D;64069;46.396;48.102;2023-01-26T16:14:43;-5.94;59.14
75489;HTU21D;64069;46.396;48.102;2023-01-26T16:17:14;-6.01;59.31
75489;HTU21D;64069;46.396;48.102;2023-01-26T16:19:41;-6.02;59.36
75489;HTU21D;64069;46.396;48.102;2023-01-26T16:22:11;-6.02;59.54
75489;HTU21D;64069;46.396;48.102;2023-01-26T16:24:38;-6.05;59.60
75489;HTU21D;64069;46.396;48.102;2023-01-26T16:27:05;-6.09;59.64
75489;HTU21D;64069;46.396;48.102;2023-01-26T16:29:32;-6.14;59.92
75489;HTU21D;64069;46.396;48.102;2023-01-26T16:32:34;-6.18;59.97
75489;HTU21D;64069;46.396;48.102;2023-01-26T16:35:00;-6.23;60.12
75489;HTU21D;64069;46.396;48.102;2023-01-26T16:37:26;-6.30;60.13
75489;HTU21D;64069;46.396;48.102;2023-01-26T16:39:52;-6.36;60.28
75489;HTU21D;64069;46.396;48.102;2023-01-26T16:42:21;-6.42;60.40
75489;HTU21D;64069;46.396;48.102;2023-01-26T16:44:47;-6.47;60.49
75489;HTU21D;64069;46.396;48.102;2023-01-26T16:47:13;-6.52;60.57
75489;HTU21D;64069;46.396;48.102;2023-01-26T16:49:39;-6.57;60.68
75489;HTU21D;64069;46.396;48.102;2023-01-26T16:52:07;-6.61;60.93
75489;HTU21D;64069;46.396;48.102;2023-01-26T16:54:33;-6.64;61.10
75489;HTU21D;64069;46.396;48.102;2023-01-26T16:57:03;-6.66;61.38
75489;HTU21D;64069;46.396;48.102;2023-01-26T16:59:29;-6.68;61.44
75489;HTU21D;64069;46.396;48.102;2023-01-26T17:01:56;-6.68;61.65
75489;HTU21D;64069;46.396;48.102;2023-01-26T17:04:21;-6.75;61.54
75489;HTU21D;64069;46.396;48.102;2023-01-26T17:06:51;-6.81;61.49